createdAt,value
2023-05-08T00:00:26.178Z,16.16
2023-05-08T00:01:26.144Z,16.16
2023-05-08T00:02:26.260Z,16.16
2023-05-08T00:03:26.217Z,16.16
2023-05-08T00:04:26.141Z,16.16
2023-05-08T00:05:26.093Z,16.17
2023-05-08T00:06:26.083Z,16.17
2023-05-08T00:07:26.076Z,16.18
2023-05-08T00:08:26.052Z,16.19
2023-05-08T00:09:26.036Z,16.19
2023-05-08T00:10:26.016Z,16.20
2023-05-08T00:11:26.034Z,16.20
2023-05-08T00:12:26.054Z,16.21
2023-05-08T00:13:26.139Z,16.21
2023-05-08T00:14:25.973Z,16.21
2023-05-08T00:15:25.968Z,16.22
2023-05-08T00:16:26.028Z,16.23
2023-05-08T00:17:25.999Z,16.23
2023-05-08T00:18:25.917Z,16.24
2023-05-08T00:19:25.910Z,16.23
2023-05-08T00:20:25.889Z,16.23
2023-05-08T00:21:25.881Z,16.22
2023-05-08T00:22:25.865Z,16.22
2023-05-08T00:23:25.860Z,16.20
2023-05-08T00:24:25.879Z,16.19
2023-05-08T00:25:25.839Z,16.18
2023-05-08T00:26:25.808Z,16.17
2023-05-08T00:27:25.811Z,16.16
2023-05-08T00:28:25.801Z,16.14
2023-05-08T00:29:25.777Z,16.13
2023-05-08T00:30:25.760Z,16.12
2023-05-08T00:31:25.791Z,16.11
2023-05-08T00:32:25.790Z,16.10
2023-05-08T00:33:25.754Z,16.09
2023-05-08T00:34:25.705Z,16.09
2023-05-08T00:35:25.703Z,16.08
2023-05-08T00:36:25.680Z,16.08
2023-05-08T00:37:25.682Z,16.07
2023-05-08T00:38:25.662Z,16.06
2023-05-08T00:39:25.717Z,16.05
2023-05-08T00:40:25.631Z,16.03
2023-05-08T00:41:25.631Z,16.02
2023-05-08T00:42:25.601Z,15.99
2023-05-08T00:43:25.616Z,15.98
2023-05-08T00:44:25.590Z,15.96
2023-05-08T00:45:25.564Z,15.94
2023-05-08T00:46:25.625Z,15.93
2023-05-08T00:47:25.558Z,15.92
2023-05-08T00:48:25.548Z,15.91
2023-05-08T00:49:25.508Z,15.91
2023-05-08T00:50:25.528Z,15.90
2023-05-08T00:51:25.494Z,15.90
2023-05-08T00:52:25.480Z,15.88
2023-05-08T00:53:25.469Z,15.87
2023-05-08T00:54:25.441Z,15.86
2023-05-08T00:55:25.452Z,15.85
2023-05-08T00:56:25.415Z,15.85
2023-05-08T00:57:25.438Z,15.85
2023-05-08T00:58:25.408Z,15.85
2023-05-08T00:59:25.385Z,15.85
2023-05-08T01:00:25.365Z,15.85
2023-05-08T01:01:25.401Z,15.86
2023-05-08T01:02:25.372Z,15.86
2023-05-08T01:03:25.428Z,15.85
2023-05-08T01:04:25.395Z,15.85
2023-05-08T01:05:25.302Z,15.84
2023-05-08T01:06:25.305Z,15.84
2023-05-08T01:07:25.302Z,15.83
2023-05-08T01:08:25.282Z,15.82
2023-05-08T01:09:25.248Z,15.81
2023-05-08T01:10:25.249Z,15.80
2023-05-08T01:11:25.249Z,15.79
2023-05-08T01:12:25.217Z,15.77
2023-05-08T01:13:25.317Z,15.76
2023-05-08T01:14:25.190Z,15.76
2023-05-08T01:15:25.192Z,15.75
2023-05-08T01:16:25.230Z,15.75
2023-05-08T01:17:25.153Z,15.75
2023-05-08T01:18:25.148Z,15.75
2023-05-08T01:19:25.136Z,15.75
2023-05-08T01:20:25.109Z,15.75
2023-05-08T01:21:25.114Z,15.75
2023-05-08T01:22:25.095Z,15.75
2023-05-08T01:23:25.097Z,15.75
2023-05-08T01:24:25.058Z,15.75
2023-05-08T01:25:25.042Z,15.74
2023-05-08T01:26:25.053Z,15.73
2023-05-08T01:27:25.023Z,15.71
2023-05-08T01:28:25.033Z,15.70
2023-05-08T01:29:24.995Z,15.69
2023-05-08T01:30:24.980Z,15.68
2023-05-08T01:31:25.013Z,15.68
2023-05-08T01:32:25.030Z,15.68
2023-05-08T01:33:25.072Z,15.67
2023-05-08T01:34:24.972Z,15.67
2023-05-08T01:35:24.913Z,15.66
2023-05-08T01:36:24.914Z,15.66
2023-05-08T01:37:24.881Z,15.65
2023-05-08T01:38:24.888Z,15.64
2023-05-08T01:39:24.868Z,15.63
2023-05-08T01:40:24.875Z,15.62
2023-05-08T01:41:24.846Z,15.61
2023-05-08T01:42:24.833Z,15.60
2023-05-08T01:43:24.810Z,15.59
2023-05-08T01:44:24.812Z,15.57
2023-05-08T01:45:24.789Z,15.55
2023-05-08T01:46:24.785Z,15.52
2023-05-08T01:47:24.761Z,15.50
2023-05-08T01:48:24.741Z,15.48
2023-05-08T01:49:24.743Z,15.46
2023-05-08T01:50:24.723Z,15.44
2023-05-08T01:51:24.705Z,15.44
2023-05-08T01:52:24.699Z,15.43
2023-05-08T01:53:24.679Z,15.42
2023-05-08T01:54:24.673Z,15.41
2023-05-08T01:55:24.679Z,15.39
2023-05-08T01:56:24.666Z,15.37
2023-05-08T01:57:24.646Z,15.36
2023-05-08T01:58:24.633Z,15.34
2023-05-08T01:59:24.617Z,15.33
2023-05-08T02:00:24.603Z,15.30
2023-05-08T02:01:24.605Z,15.29
2023-05-08T02:02:24.587Z,15.28
2023-05-08T02:03:24.607Z,15.27
2023-05-08T02:04:24.580Z,15.26
2023-05-08T02:05:24.550Z,15.26
2023-05-08T02:06:24.512Z,15.25
2023-05-08T02:07:24.508Z,15.24
2023-05-08T02:08:24.495Z,15.25
2023-05-08T02:09:24.485Z,15.25
2023-05-08T02:10:24.461Z,15.25
2023-05-08T02:11:24.462Z,15.25
2023-05-08T02:12:24.439Z,15.26
2023-05-08T02:13:24.507Z,15.26
2023-05-08T02:14:24.427Z,15.27
2023-05-08T02:15:24.405Z,15.28
2023-05-08T02:16:24.426Z,15.28
2023-05-08T02:17:24.410Z,15.29
2023-05-08T02:18:24.372Z,15.30
2023-05-08T02:19:24.340Z,15.30
2023-05-08T02:20:24.337Z,15.30
2023-05-08T02:21:24.314Z,15.31
2023-05-08T02:22:24.300Z,15.31
2023-05-08T02:23:24.284Z,15.31
2023-05-08T02:24:24.275Z,15.32
2023-05-08T02:25:24.282Z,15.32
2023-05-08T02:26:24.262Z,15.32
2023-05-08T02:27:24.252Z,15.32
2023-05-08T02:28:24.237Z,15.32
2023-05-08T02:29:24.207Z,15.32
2023-05-08T02:30:24.234Z,15.32
2023-05-08T02:31:24.239Z,15.33
2023-05-08T02:32:24.269Z,15.33
2023-05-08T02:33:24.165Z,15.34
2023-05-08T02:34:24.144Z,15.35
2023-05-08T02:35:24.141Z,15.35
2023-05-08T02:36:24.131Z,15.35
2023-05-08T02:37:24.102Z,15.35
2023-05-08T02:38:24.102Z,15.34
2023-05-08T02:39:24.081Z,15.34
2023-05-08T02:40:24.148Z,15.33
2023-05-08T02:41:24.076Z,15.32
2023-05-08T02:42:24.034Z,15.32
2023-05-08T02:43:24.054Z,15.31
2023-05-08T02:44:24.023Z,15.30
2023-05-08T02:45:24.015Z,15.30
2023-05-08T02:46:24.031Z,15.29
2023-05-08T02:47:24.060Z,15.28
2023-05-08T02:48:23.971Z,15.28
2023-05-08T02:49:23.965Z,15.27
2023-05-08T02:50:23.955Z,15.27
2023-05-08T02:51:23.919Z,15.26
2023-05-08T02:52:23.914Z,15.25
2023-05-08T02:53:23.888Z,15.24
2023-05-08T02:54:23.885Z,15.23
2023-05-08T02:55:23.883Z,15.22
2023-05-08T02:56:23.890Z,15.21
2023-05-08T02:57:23.855Z,15.21
2023-05-08T02:58:23.835Z,15.20
2023-05-08T02:59:23.845Z,15.20
2023-05-08T03:00:23.833Z,15.20
2023-05-08T03:01:23.822Z,15.20
2023-05-08T03:02:23.907Z,15.19
2023-05-08T03:03:23.858Z,15.18
2023-05-08T03:04:23.751Z,15.18
2023-05-08T03:05:23.747Z,15.18
2023-05-08T03:06:23.760Z,15.18
2023-05-08T03:07:23.713Z,15.18
2023-05-08T03:08:23.710Z,15.18
2023-05-08T03:09:23.699Z,15.19
2023-05-08T03:10:23.680Z,15.19
2023-05-08T03:11:23.663Z,15.18
2023-05-08T03:12:23.654Z,15.17
2023-05-08T03:13:23.748Z,15.17
2023-05-08T03:14:23.623Z,15.16
2023-05-08T03:15:23.600Z,15.15
2023-05-08T03:16:23.707Z,15.15
2023-05-08T03:17:23.614Z,15.15
2023-05-08T03:18:23.599Z,15.15
2023-05-08T03:19:23.612Z,15.16
2023-05-08T03:20:23.544Z,15.17
2023-05-08T03:21:23.532Z,15.17
2023-05-08T03:22:23.528Z,15.16
2023-05-08T03:23:23.562Z,15.16
2023-05-08T03:24:23.490Z,15.16
2023-05-08T03:25:23.479Z,15.16
2023-05-08T03:26:23.491Z,15.16
2023-05-08T03:27:23.454Z,15.16
2023-05-08T03:28:23.448Z,15.16
2023-05-08T03:29:23.436Z,15.17
2023-05-08T03:30:23.407Z,15.17
2023-05-08T03:31:23.560Z,15.17
2023-05-08T03:32:23.411Z,15.18
2023-05-08T03:33:23.381Z,15.18
2023-05-08T03:34:23.359Z,15.19
2023-05-08T03:35:23.365Z,15.19
2023-05-08T03:36:23.346Z,15.20
2023-05-08T03:37:23.350Z,15.20
2023-05-08T03:38:23.326Z,15.20
2023-05-08T03:39:23.287Z,15.20
2023-05-08T03:40:23.286Z,15.20
2023-05-08T03:41:23.284Z,15.20
2023-05-08T03:42:23.250Z,15.20
2023-05-08T03:43:23.231Z,15.19
2023-05-08T03:44:23.244Z,15.17
2023-05-08T03:45:23.222Z,15.14
2023-05-08T04:15:27.086Z,15.69
2023-05-08T04:16:27.884Z,15.26
2023-05-08T04:17:27.846Z,14.97
2023-05-08T04:18:27.727Z,14.82
2023-05-08T04:19:27.721Z,14.72
2023-05-08T04:20:27.753Z,14.66
2023-05-08T04:21:27.834Z,14.62
2023-05-08T04:22:27.745Z,14.59
2023-05-08T04:23:27.668Z,14.56
2023-05-08T04:24:27.656Z,14.54
2023-05-08T04:25:27.684Z,14.52
2023-05-08T04:26:27.671Z,14.50
2023-05-08T04:27:27.619Z,14.47
2023-05-08T04:28:27.613Z,14.45
2023-05-08T04:29:27.623Z,14.42
2023-05-08T04:30:27.585Z,14.41
2023-05-08T04:31:27.612Z,14.39
2023-05-08T04:32:27.612Z,14.38
2023-05-08T04:33:27.627Z,14.38
2023-05-08T04:34:27.548Z,14.37
2023-05-08T04:35:27.514Z,14.37
2023-05-08T04:36:27.506Z,14.37
2023-05-08T04:37:27.534Z,14.37
2023-05-08T04:38:27.503Z,14.37
2023-05-08T04:39:27.484Z,14.37
2023-05-08T04:40:27.553Z,14.36
2023-05-08T04:41:27.495Z,14.35
2023-05-08T04:42:27.450Z,14.33
2023-05-08T04:43:27.397Z,14.32
2023-05-08T04:44:27.396Z,14.31
2023-05-08T04:45:27.403Z,14.30
2023-05-08T04:46:27.524Z,14.30
2023-05-08T05:15:40.206Z,15.50
2023-05-08T05:16:41.270Z,15.06
2023-05-08T05:17:41.351Z,14.77
2023-05-08T05:18:41.107Z,14.61
2023-05-08T05:19:41.028Z,14.51
2023-05-08T05:20:41.767Z,14.44
2023-05-08T05:21:41.253Z,14.40
2023-05-08T05:22:40.965Z,14.38
2023-05-08T05:23:41.789Z,14.37
2023-05-08T05:24:40.953Z,14.36
2023-05-08T05:25:40.982Z,14.36
2023-05-08T05:26:41.111Z,14.36
2023-05-08T05:27:40.999Z,14.34
2023-05-08T05:28:40.923Z,14.33
2023-05-08T05:29:40.935Z,14.31
2023-05-08T05:30:40.914Z,14.30
2023-05-08T05:31:40.993Z,14.29
2023-05-08T05:32:40.906Z,14.28
2023-05-08T05:33:40.892Z,14.27
2023-05-08T05:34:41.087Z,14.26
2023-05-08T05:35:40.798Z,14.24
2023-05-08T05:36:40.827Z,14.21
2023-05-08T05:37:40.784Z,14.19
2023-05-08T05:38:40.758Z,14.18
2023-05-08T05:39:51.396Z,14.19
2023-05-08T05:40:41.017Z,14.19
2023-05-08T05:41:40.726Z,14.18
2023-05-08T05:42:41.413Z,14.15
2023-05-08T05:43:55.200Z,14.13
2023-05-08T05:44:40.792Z,14.12
2023-05-08T05:45:40.762Z,14.11
2023-05-08T05:46:44.251Z,14.11
2023-05-08T05:47:42.495Z,14.10
2023-05-08T05:49:06.478Z,14.10
2023-05-08T05:49:44.064Z,14.09
2023-05-08T05:50:41.020Z,14.07
2023-05-08T05:51:40.600Z,14.05
2023-05-08T05:52:40.566Z,14.03
2023-05-08T05:53:41.524Z,14.01
2023-05-08T05:54:40.555Z,14.00
2023-05-08T05:55:40.565Z,13.99
2023-05-08T05:56:40.503Z,13.98
2023-05-08T05:57:40.483Z,13.98
2023-05-08T05:58:40.822Z,13.97
2023-05-08T05:59:40.495Z,13.96
2023-05-08T06:00:40.435Z,13.95
2023-05-08T06:01:40.456Z,13.94
2023-05-08T06:02:40.604Z,13.93
2023-05-08T06:03:40.538Z,13.93
2023-05-08T06:04:40.420Z,13.92
2023-05-08T06:05:40.380Z,13.91
2023-05-08T06:06:40.364Z,13.91
2023-05-08T06:07:40.364Z,13.91
2023-05-08T06:08:40.347Z,13.92
2023-05-08T06:09:40.336Z,13.93
2023-05-08T06:10:40.352Z,13.94
2023-05-08T06:11:40.326Z,13.94
2023-05-08T06:12:40.347Z,13.94
2023-05-08T06:13:40.365Z,13.95
2023-05-08T06:14:40.311Z,13.96
2023-05-08T06:15:40.259Z,13.96
2023-05-08T06:16:40.264Z,13.95
2023-05-08T06:17:40.289Z,13.95
2023-05-08T06:18:40.233Z,13.96
2023-05-08T06:19:40.191Z,13.97
2023-05-08T06:20:40.211Z,13.98
2023-05-08T06:21:40.167Z,14.00
2023-05-08T06:22:40.148Z,14.02
2023-05-08T06:23:40.152Z,14.04
2023-05-08T06:24:40.131Z,14.06
2023-05-08T06:25:40.107Z,14.07
2023-05-08T06:26:40.090Z,14.07
2023-05-08T06:27:40.121Z,14.08
2023-05-08T06:28:40.065Z,14.09
2023-05-08T06:29:40.140Z,14.11
2023-05-08T06:30:40.140Z,14.12
2023-05-08T06:31:40.109Z,14.14
2023-05-08T06:32:40.043Z,14.15
2023-05-08T06:33:40.017Z,14.16
2023-05-08T06:34:39.994Z,14.17
2023-05-08T06:35:39.976Z,14.17
2023-05-08T06:36:39.963Z,14.17
2023-05-08T06:37:39.975Z,14.16
2023-05-08T06:38:39.956Z,14.15
2023-05-08T06:39:39.938Z,14.13
2023-05-08T06:40:39.929Z,14.11
2023-05-08T06:41:39.902Z,14.08
2023-05-08T06:42:39.892Z,14.05
2023-05-08T06:43:39.871Z,14.04
2023-05-08T06:44:39.864Z,14.03
2023-05-08T06:45:39.838Z,14.02
2023-05-08T06:46:39.877Z,14.02
2023-05-08T06:47:39.854Z,14.02
2023-05-08T06:48:39.805Z,14.02
2023-05-08T06:49:39.809Z,14.02
2023-05-08T06:50:39.772Z,14.01
2023-05-08T06:51:39.766Z,14.00
2023-05-08T06:52:39.779Z,13.99
2023-05-08T06:53:39.748Z,13.98
2023-05-08T06:54:39.749Z,13.97
2023-05-08T06:55:39.707Z,13.96
2023-05-08T06:56:39.700Z,13.95
2023-05-08T06:57:39.702Z,13.95
2023-05-08T06:58:39.670Z,13.95
2023-05-08T06:59:39.669Z,13.95
2023-05-08T07:00:39.644Z,13.94
2023-05-08T07:01:39.695Z,13.94
2023-05-08T07:02:39.661Z,13.93
2023-05-08T07:03:39.620Z,13.93
2023-05-08T07:04:39.683Z,13.94
2023-05-08T07:05:39.580Z,13.96
2023-05-08T07:06:39.586Z,13.98
2023-05-08T07:07:39.548Z,14.02
2023-05-08T07:08:39.534Z,14.06
2023-05-08T07:09:39.532Z,14.10
2023-05-08T07:10:39.516Z,14.15
2023-05-08T07:11:39.494Z,14.19
2023-05-08T07:12:39.525Z,14.23
2023-05-08T07:13:39.492Z,14.27
2023-05-08T07:14:39.499Z,14.30
2023-05-08T07:15:39.455Z,14.33
2023-05-08T07:16:39.465Z,14.35
2023-05-08T07:17:39.474Z,14.35
2023-05-08T07:18:39.412Z,14.35
2023-05-08T07:19:39.411Z,14.35
2023-05-08T07:20:39.388Z,14.36
2023-05-08T07:21:39.377Z,14.37
2023-05-08T07:22:39.351Z,14.37
2023-05-08T07:23:39.345Z,14.38
2023-05-08T07:24:39.341Z,14.38
2023-05-08T07:25:39.324Z,14.39
2023-05-08T07:26:39.313Z,14.38
2023-05-08T07:27:39.298Z,14.35
2023-05-08T07:28:39.277Z,14.33
2023-05-08T07:29:39.282Z,14.32
2023-05-08T07:30:39.273Z,14.32
2023-05-08T07:31:39.291Z,14.32
2023-05-08T07:32:39.502Z,14.32
2023-05-08T07:33:39.241Z,14.33
2023-05-08T07:34:39.206Z,14.35
2023-05-08T07:35:39.194Z,14.37
2023-05-08T07:36:39.180Z,14.38
2023-05-08T07:37:39.177Z,14.38
2023-05-08T07:38:39.145Z,14.39
2023-05-08T07:39:39.157Z,14.40
2023-05-08T07:40:39.151Z,14.41
2023-05-08T07:41:39.130Z,14.42
2023-05-08T07:42:39.095Z,14.43
2023-05-08T07:43:39.086Z,14.44
2023-05-08T07:44:53.194Z,14.46
2023-05-08T07:45:39.077Z,14.47
2023-05-08T07:46:39.119Z,14.47
2023-05-08T07:47:39.045Z,14.47
2023-05-08T07:48:39.027Z,14.46
2023-05-08T07:49:39.005Z,14.45
2023-05-08T07:50:38.994Z,14.43
2023-05-08T07:51:38.975Z,14.42
2023-05-08T07:52:38.965Z,14.42
2023-05-08T07:53:38.953Z,14.42
2023-05-08T07:54:38.931Z,14.42
2023-05-08T07:55:38.937Z,14.42
2023-05-08T07:56:38.908Z,14.43
2023-05-08T07:57:38.917Z,14.43
2023-05-08T07:58:38.881Z,14.44
2023-05-08T07:59:38.879Z,14.44
2023-05-08T08:00:38.864Z,14.44
2023-05-08T08:01:38.889Z,14.43
2023-05-08T08:02:39.002Z,14.42
2023-05-08T08:03:38.985Z,14.41
2023-05-08T08:04:38.816Z,14.39
2023-05-08T08:05:38.818Z,14.39
2023-05-08T08:06:38.794Z,14.39
2023-05-08T08:07:38.769Z,14.40
2023-05-08T08:08:38.747Z,14.41
2023-05-08T08:09:38.746Z,14.42
2023-05-08T08:10:38.733Z,14.42
2023-05-08T08:11:38.713Z,14.42
2023-05-08T08:12:38.731Z,14.43
2023-05-08T08:13:38.713Z,14.45
2023-05-08T08:14:38.676Z,14.46
2023-05-08T08:15:38.780Z,14.48
2023-05-08T08:16:38.697Z,14.50
2023-05-08T08:17:38.702Z,14.52
2023-05-08T08:18:38.655Z,14.54
2023-05-08T08:19:38.618Z,14.55
2023-05-08T08:20:38.603Z,14.56
2023-05-08T08:21:38.592Z,14.57
2023-05-08T08:22:38.577Z,14.57
2023-05-08T08:23:38.573Z,14.58
2023-05-08T08:24:38.586Z,14.58
2023-05-08T08:25:38.582Z,14.59
2023-05-08T08:26:38.529Z,14.61
2023-05-08T08:27:38.567Z,14.62
2023-05-08T08:28:38.498Z,14.63
2023-05-08T08:29:38.483Z,14.64
2023-05-08T08:30:38.493Z,14.64
2023-05-08T08:31:38.515Z,14.64
2023-05-08T08:32:38.487Z,14.64
2023-05-08T08:33:38.460Z,14.64
2023-05-08T08:34:38.421Z,14.64
2023-05-08T08:35:38.426Z,14.64
2023-05-08T08:36:38.391Z,14.64
2023-05-08T08:37:38.378Z,14.65
2023-05-08T08:38:38.373Z,14.65
2023-05-08T08:39:38.354Z,14.66
2023-05-08T08:40:38.345Z,14.66
2023-05-08T08:41:38.371Z,14.67
2023-05-08T08:42:38.329Z,14.68
2023-05-08T08:43:38.336Z,14.69
2023-05-08T08:44:40.065Z,14.71
2023-05-08T08:45:38.293Z,14.74
2023-05-08T08:46:38.278Z,14.76
2023-05-08T08:47:38.359Z,14.79
2023-05-08T08:48:38.247Z,14.82
2023-05-08T08:49:38.243Z,14.84
2023-05-08T08:50:38.236Z,14.86
2023-05-08T08:51:38.200Z,14.88
2023-05-08T08:52:38.203Z,14.91
2023-05-08T08:53:38.188Z,14.93
2023-05-08T08:54:38.158Z,14.96
2023-05-08T08:55:38.796Z,14.98
2023-05-08T08:56:38.133Z,15.01
2023-05-08T08:57:38.119Z,15.04
2023-05-08T08:58:39.266Z,15.08
2023-05-08T08:59:38.094Z,15.11
2023-05-08T09:00:38.074Z,15.13
2023-05-08T09:01:38.114Z,15.15
2023-05-08T09:02:38.180Z,15.16
2023-05-08T09:03:38.130Z,15.18
2023-05-08T09:04:38.024Z,15.20
2023-05-08T09:05:38.020Z,15.23
2023-05-08T09:06:38.021Z,15.24
2023-05-08T09:07:37.979Z,15.26
2023-05-08T09:08:37.982Z,15.28
2023-05-08T09:09:38.121Z,15.30
2023-05-08T09:10:49.225Z,15.32
2023-05-08T09:11:38.045Z,15.35
2023-05-08T09:12:38.069Z,15.37
2023-05-08T09:13:37.946Z,15.40
2023-05-08T09:14:37.894Z,15.43
2023-05-08T09:15:37.904Z,15.46
2023-05-08T09:16:37.942Z,15.49
2023-05-08T09:17:37.875Z,15.52
2023-05-08T09:18:37.865Z,15.55
2023-05-08T09:19:37.837Z,15.57
2023-05-08T09:20:37.817Z,15.60
2023-05-08T09:21:37.819Z,15.62
2023-05-08T09:22:37.808Z,15.65
2023-05-08T09:23:37.798Z,15.68
2023-05-08T09:24:37.765Z,15.70
2023-05-08T09:25:37.751Z,15.72
2023-05-08T09:26:37.754Z,15.73
2023-05-08T09:27:37.738Z,15.74
2023-05-08T09:28:37.716Z,15.75
2023-05-08T09:29:37.708Z,15.76
2023-05-08T09:30:37.688Z,15.76
2023-05-08T09:31:37.769Z,15.77
2023-05-08T09:32:37.694Z,15.77
2023-05-08T09:33:37.650Z,15.78
2023-05-08T09:34:37.641Z,15.80
2023-05-08T09:35:37.615Z,15.81
2023-05-08T09:36:37.617Z,15.82
2023-05-08T09:37:37.610Z,15.84
2023-05-08T09:38:37.674Z,15.85
2023-05-08T09:39:37.585Z,15.87
2023-05-08T09:40:37.561Z,15.89
2023-05-08T09:41:37.544Z,15.91
2023-05-08T09:42:37.574Z,15.92
2023-05-08T09:43:37.527Z,15.94
2023-05-08T09:44:37.522Z,15.96
2023-05-08T09:45:37.515Z,15.98
2023-05-08T09:46:37.488Z,16.00
2023-05-08T09:47:37.543Z,16.01
2023-05-08T09:48:37.452Z,16.02
2023-05-08T09:49:37.447Z,16.04
2023-05-08T09:50:37.434Z,16.05
2023-05-08T09:51:37.415Z,16.07
2023-05-08T09:52:37.431Z,16.10
2023-05-08T09:53:37.393Z,16.12
2023-05-08T09:54:37.388Z,16.13
2023-05-08T09:55:37.369Z,16.15
2023-05-08T09:56:37.360Z,16.17
2023-05-08T09:57:37.346Z,16.18
2023-05-08T09:58:37.320Z,16.20
2023-05-08T09:59:37.305Z,16.21
2023-05-08T10:00:37.300Z,16.23
2023-05-08T10:01:37.375Z,16.24
2023-05-08T10:02:37.497Z,16.26
2023-05-08T10:03:37.322Z,16.28
2023-05-08T10:04:37.355Z,16.30
2023-05-08T10:05:37.246Z,16.31
2023-05-08T10:06:37.256Z,16.32
2023-05-08T10:07:37.282Z,16.34
2023-05-08T10:08:37.350Z,16.36
2023-05-08T10:09:49.880Z,16.38
2023-05-08T10:10:37.154Z,16.41
2023-05-08T10:11:37.158Z,16.43
2023-05-08T10:12:37.149Z,16.45
2023-05-08T10:13:37.125Z,16.48
2023-05-08T10:14:37.113Z,16.50
2023-05-08T10:15:37.090Z,16.51
2023-05-08T10:16:37.118Z,16.53
2023-05-08T10:17:37.125Z,16.55
2023-05-08T10:18:37.051Z,16.56
2023-05-08T10:19:37.050Z,16.58
2023-05-08T10:20:37.029Z,16.59
2023-05-08T10:21:37.019Z,16.59
2023-05-08T10:22:37.007Z,16.60
2023-05-08T10:23:36.995Z,16.62
2023-05-08T10:24:36.972Z,16.62
2023-05-08T10:25:36.990Z,16.63
2023-05-08T10:26:36.956Z,16.63
2023-05-08T10:27:36.931Z,16.64
2023-05-08T10:28:36.964Z,16.65
2023-05-08T10:29:36.910Z,16.66
2023-05-08T10:30:36.904Z,16.67
2023-05-08T10:31:37.071Z,16.67
2023-05-08T10:32:36.880Z,16.67
2023-05-08T10:33:36.868Z,16.67
2023-05-08T10:34:36.858Z,16.67
2023-05-08T10:35:36.838Z,16.68
2023-05-08T10:36:36.890Z,16.69
2023-05-08T10:37:36.812Z,16.70
2023-05-08T10:38:36.821Z,16.71
2023-05-08T10:39:36.774Z,16.73
2023-05-08T10:40:36.777Z,16.75
2023-05-08T10:41:36.753Z,16.77
2023-05-08T10:42:36.778Z,16.79
2023-05-08T10:43:36.736Z,16.80
2023-05-08T10:44:36.736Z,16.81
2023-05-08T10:45:36.720Z,16.82
2023-05-08T10:46:36.820Z,16.84
2023-05-08T10:47:36.727Z,16.85
2023-05-08T10:48:36.696Z,16.86
2023-05-08T10:49:36.661Z,16.88
2023-05-08T10:50:36.638Z,16.89
2023-05-08T10:51:36.625Z,16.90
2023-05-08T10:52:36.611Z,16.92
2023-05-08T10:53:36.599Z,16.94
2023-05-08T10:54:36.602Z,16.95
2023-05-08T10:55:36.572Z,16.96
2023-05-08T10:56:36.557Z,16.97
2023-05-08T10:57:36.555Z,16.98
2023-05-08T10:58:36.558Z,16.99
2023-05-08T10:59:36.726Z,16.99
2023-05-08T11:00:36.645Z,17.00
2023-05-08T11:01:36.608Z,17.01
2023-05-08T11:02:36.627Z,17.01
2023-05-08T11:03:36.633Z,17.02
2023-05-08T11:04:36.547Z,17.02
2023-05-08T11:05:36.487Z,17.02
2023-05-08T11:06:36.505Z,17.02
2023-05-08T11:07:36.433Z,17.02
2023-05-08T11:08:36.413Z,17.02
2023-05-08T11:09:36.403Z,17.02
2023-05-08T11:10:36.418Z,17.01
2023-05-08T11:11:36.380Z,17.01
2023-05-08T11:12:36.427Z,17.01
2023-05-08T11:13:36.356Z,17.00
2023-05-08T11:14:36.330Z,17.00
2023-05-08T11:15:36.336Z,16.99
2023-05-08T11:16:36.387Z,16.99
2023-05-08T11:17:36.328Z,16.99
2023-05-08T11:18:48.392Z,16.99
2023-05-08T11:19:36.297Z,16.99
2023-05-08T11:20:36.252Z,16.98
2023-05-08T11:21:36.308Z,16.98
2023-05-08T11:22:36.253Z,16.98
2023-05-08T11:23:36.214Z,16.98
2023-05-08T11:24:36.237Z,16.99
2023-05-08T11:25:36.199Z,17.00
2023-05-08T11:26:36.180Z,17.01
2023-05-08T11:27:36.186Z,17.02
2023-05-08T11:28:36.175Z,17.03
2023-05-08T11:29:36.163Z,17.04
2023-05-08T11:30:36.133Z,17.04
2023-05-08T11:31:36.216Z,17.05
2023-05-08T11:32:36.216Z,17.06
2023-05-08T11:33:36.124Z,17.07
2023-05-08T11:34:36.099Z,17.07
2023-05-08T11:35:36.131Z,17.08
2023-05-08T11:36:36.069Z,17.08
2023-05-08T11:37:36.034Z,17.09
2023-05-08T11:38:36.494Z,17.10
2023-05-08T11:39:36.036Z,17.11
2023-05-08T11:40:36.013Z,17.12
2023-05-08T11:41:35.993Z,17.13
2023-05-08T11:42:36.032Z,17.14
2023-05-08T11:43:35.996Z,17.15
2023-05-08T11:44:35.993Z,17.15
2023-05-08T11:45:35.979Z,17.16
2023-05-08T11:46:36.088Z,17.16
2023-05-08T11:47:36.039Z,17.16
2023-05-08T11:48:35.948Z,17.17
2023-05-08T11:49:35.956Z,17.17
2023-05-08T11:50:35.911Z,17.17
2023-05-08T11:51:35.903Z,17.18
2023-05-08T11:52:35.879Z,17.18
2023-05-08T11:53:35.861Z,17.19
2023-05-08T11:54:35.829Z,17.19
2023-05-08T11:55:35.825Z,17.20
2023-05-08T11:56:35.827Z,17.21
2023-05-08T11:57:35.852Z,17.22
2023-05-08T11:58:35.817Z,17.24
2023-05-08T11:59:35.789Z,17.25
2023-05-08T12:00:35.835Z,17.26
2023-05-08T12:01:35.764Z,17.27
2023-05-08T12:02:35.792Z,17.27
2023-05-08T12:03:35.898Z,17.28
2023-05-08T12:04:35.837Z,17.28
2023-05-08T12:05:35.687Z,17.28
2023-05-08T12:06:35.698Z,17.28
2023-05-08T12:07:35.668Z,17.28
2023-05-08T12:08:35.657Z,17.27
2023-05-08T12:09:35.664Z,17.27
2023-05-08T12:10:35.688Z,17.26
2023-05-08T12:11:35.607Z,17.26
2023-05-08T12:12:35.612Z,17.26
2023-05-08T12:13:35.706Z,17.26
2023-05-08T12:14:35.591Z,17.26
2023-05-08T12:15:35.578Z,17.27
2023-05-08T12:16:35.612Z,17.27
2023-05-08T12:17:35.594Z,17.27
2023-05-08T12:18:36.168Z,17.26
2023-05-08T12:19:35.538Z,17.26
2023-05-08T12:20:35.497Z,17.26
2023-05-08T12:21:35.486Z,17.26
2023-05-08T12:22:35.502Z,17.27
2023-05-08T12:23:35.456Z,17.27
2023-05-08T12:24:35.456Z,17.27
2023-05-08T12:25:35.470Z,17.28
2023-05-08T12:26:35.428Z,17.28
2023-05-08T12:27:35.394Z,17.29
2023-05-08T12:28:35.406Z,17.30
2023-05-08T12:29:35.387Z,17.32
2023-05-08T12:30:35.385Z,17.33
2023-05-08T12:31:35.395Z,17.34
2023-05-08T12:32:35.344Z,17.35
2023-05-08T12:33:35.332Z,17.36
2023-05-08T12:34:35.328Z,17.36
2023-05-08T12:35:35.315Z,17.36
2023-05-08T12:36:35.304Z,17.37
2023-05-08T12:37:35.267Z,17.38
2023-05-08T12:38:35.260Z,17.39
2023-05-08T12:39:35.252Z,17.40
2023-05-08T12:40:35.254Z,17.42
2023-05-08T12:41:35.238Z,17.43
2023-05-08T12:42:35.215Z,17.44
2023-05-08T12:43:35.192Z,17.44
2023-05-08T12:44:35.189Z,17.44
2023-05-08T12:45:35.197Z,17.45
2023-05-08T12:46:35.254Z,17.47
2023-05-08T12:47:35.173Z,17.49
2023-05-08T12:48:35.148Z,17.50
2023-05-08T12:49:35.149Z,17.51
2023-05-08T12:50:35.134Z,17.51
2023-05-08T12:51:35.130Z,17.52
2023-05-08T12:52:35.083Z,17.53
2023-05-08T12:53:35.103Z,17.54
2023-05-08T12:54:35.061Z,17.55
2023-05-08T12:55:35.057Z,17.56
2023-05-08T12:56:36.480Z,17.56
2023-05-08T12:57:35.316Z,17.56
2023-05-08T12:58:35.180Z,17.56
2023-05-08T12:59:35.014Z,17.55
2023-05-08T13:00:35.037Z,17.55
2023-05-08T13:01:35.044Z,17.55
2023-05-08T13:02:39.359Z,17.54
2023-05-08T13:03:35.040Z,17.54
2023-05-08T13:04:35.038Z,17.53
2023-05-08T13:05:34.936Z,17.52
2023-05-08T13:06:34.921Z,17.50
2023-05-08T13:07:34.910Z,17.49
2023-05-08T13:08:34.906Z,17.47
2023-05-08T13:09:34.881Z,17.45
2023-05-08T13:10:34.882Z,17.44
2023-05-08T13:11:34.883Z,17.43
2023-05-08T13:12:34.832Z,17.43
2023-05-08T13:13:34.831Z,17.42
2023-05-08T13:14:34.813Z,17.42
2023-05-08T13:15:34.803Z,17.42
2023-05-08T13:16:34.813Z,17.42
2023-05-08T13:17:34.776Z,17.42
2023-05-08T13:18:34.773Z,17.42
2023-05-08T13:19:35.217Z,17.42
2023-05-08T13:20:34.737Z,17.42
2023-05-08T13:21:34.737Z,17.42
2023-05-08T13:22:34.703Z,17.41
2023-05-08T13:23:34.696Z,17.40
2023-05-08T13:24:34.696Z,17.39
2023-05-08T13:25:34.688Z,17.39
2023-05-08T13:26:34.662Z,17.39
2023-05-08T13:27:34.656Z,17.39
2023-05-08T13:28:34.638Z,17.38
2023-05-08T13:29:34.709Z,17.38
2023-05-08T13:30:34.616Z,17.37
2023-05-08T13:31:34.636Z,17.36
2023-05-08T13:32:34.641Z,17.36
2023-05-08T13:33:34.576Z,17.35
2023-05-08T13:34:34.913Z,17.35
2023-05-08T13:35:34.572Z,17.35
2023-05-08T13:36:34.530Z,17.35
2023-05-08T13:37:34.513Z,17.35
2023-05-08T13:38:34.500Z,17.35
2023-05-08T13:39:34.487Z,17.35
2023-05-08T13:40:34.507Z,17.35
2023-05-08T13:41:34.465Z,17.35
2023-05-08T13:42:34.460Z,17.35
2023-05-08T13:43:34.432Z,17.35
2023-05-08T13:44:34.429Z,17.34
2023-05-08T13:45:34.486Z,17.34
2023-05-08T13:46:34.457Z,17.33
2023-05-08T13:47:34.449Z,17.33
2023-05-08T13:48:34.396Z,17.33
2023-05-08T13:49:34.387Z,17.33